CYPR/YPR METAR and TAF weather

Enter ICAO airport designator
Station Type Date Time Source
CYPR METAR 2021/05/11 22:00 UTC NOAA

CYPR 112200Z AUTO 29005KT 9SM OVC041 12/05 A3022 RMK SLP235


Station Type Date Time Source
CYPR Decoded METAR 2021/05/11 22:00 UTC NOAA

Prince Rupert, B. C., Canada (CYPR) 54-18N 130-26W 34M
May 11, 2021 - 06:00 PM EDT / 2021.05.11 2200 UTC
Wind: from the WNW (290 degrees) at 6 MPH (5 KT):0
Visibility: 9 mile(s):0
Sky conditions: overcast
Temperature: 53 F (12 C)
Dew Point: 41 F (5 C)
Relative Humidity: 62%
Pressure (altimeter): 30.22 in. Hg (1023 hPa)
ob: CYPR 112200Z AUTO 29005KT 9SM OVC041 12/05 A3022 RMK SLP235
cycle: 22

Station Type Date Time Source
CYPR TAF 2021/05/11 19:42 UTC NOAA

TAF CYPR 111838Z 1119/1207 28006KT P6SM SCT040 BKN080
TEMPO 1119/1205 BKN040
FM120500 VRB03KT P6SM SCT020 OVC040
TEMPO 1205/1207 5SM -RA BR BKN020 OVC040
RMK FCST BASED ON AUTO OBS. NXT FCST BY 120100Z

Example: see airport list